< < Back
Terminal Aerodrome Forecast


Current Version              Previous Versions:   1  2  3  4  5  6  7  8  9  

Terminal Aerodrome Forecast

570
FTUS44 KBMX 280830 AAB
TAFANB
TAF AMD
KANB 280830Z 2809/2906 00000KT P6SM SCT005
      TEMPO 2809/2813 BKN005
     FM281600 02010KT P6SM BKN150
     FM282100 36010KT P6SM VCTS BKN050CB
     FM290100 01005KT P6SM BKN250=

Latest METAR

551
SAUS70 KWBC 281600 RRK
MTRANB
METAR KANB 281553Z AUTO 02006KT 10SM BKN018 BKN023 BKN035 28/22 A3005
RMK AO2 SLP165 T02780217


USA.gov is the U.S. government's official web portal to all federal, state and local government web resources and services.